Time;durP1;ratioP1;P1;durP2;ratioP2;P2;SDS_P1;SDS_P2;PMS_P1;PMS_P2;Temp;Humidity;BMP_temperature;BMP_pressure;BME280_temperature;BME280_humidity;BME280_pressure;Samples;Min_cycle;Max_cycle;Signal;HPM_P1;HPM_P2
2023/05/30 04:00:22;;;;;;;2.73;1.63;;;10.50;94.60;;;;;;6147192;22;20422;31
2023/05/30 04:02:47;;;;;;;1.53;1.43;;;10.50;94.30;;;;;;4914966;29;20737;-89
2023/05/30 04:05:13;;;;;;;2.17;1.77;;;10.60;94.00;;;;;;4916172;29;20841;-88
2023/05/30 04:07:41;;;;;;;1.80;1.70;;;10.60;93.50;;;;;;4931312;29;20212;-86
2023/05/30 04:10:07;;;;;;;1.80;1.70;;;10.60;93.70;;;;;;4937187;29;20997;-88
2023/05/30 04:12:32;;;;;;;1.97;1.70;;;10.60;93.50;;;;;;4917599;29;20449;-90
2023/05/30 04:15:00;;;;;;;2.43;2.23;;;10.60;93.50;;;;;;4922396;29;20443;-90
2023/05/30 04:17:31;;;;;;;1.37;1.27;;;10.70;93.40;;;;;;4922596;29;20218;-91
2023/05/30 04:19:59;;;;;;;3.87;2.00;;;10.80;93.40;;;;;;5001467;23;20432;-91
2023/05/30 04:22:24;;;;;;;1.10;1.00;;;10.80;93.10;;;;;;4953320;28;20585;-91
2023/05/30 04:25:05;;;;;;;1.30;1.20;;;10.90;93.00;;;;;;4956783;28;20517;-88
2023/05/30 04:27:34;;;;;;;5.27;1.57;;;11.00;92.90;;;;;;4954223;28;20178;-89
2023/05/30 04:30:08;;;;;;;1.60;1.50;;;11.00;92.80;;;;;;4953873;28;20821;-89
2023/05/30 04:32:34;;;;;;;5.13;2.23;;;11.10;92.60;;;;;;4972243;28;20429;-89
2023/05/30 04:35:04;;;;;;;1.73;1.63;;;11.20;92.40;;;;;;4979710;28;20834;-90
2023/05/30 04:37:38;;;;;;;3.40;1.90;;;11.20;92.40;;;;;;4968686;28;20178;-88
2023/05/30 04:40:05;;;;;;;2.40;1.83;;;11.30;92.50;;;;;;4978672;28;20432;-87
2023/05/30 04:42:33;;;;;;;2.50;2.13;;;11.40;92.50;;;;;;4971349;28;21079;-88
2023/05/30 04:45:04;;;;;;;1.50;1.40;;;11.50;92.10;;;;;;4973671;28;20444;-88
2023/05/30 04:47:33;;;;;;;1.67;1.57;;;11.50;92.00;;;;;;4964119;28;20425;-88
2023/05/30 04:50:02;;;;;;;4.00;1.97;;;11.50;91.70;;;;;;4974931;28;20461;-88
2023/05/30 04:52:28;;;;;;;1.40;1.30;;;11.40;91.60;;;;;;4966034;28;20503;-90
2023/05/30 04:54:57;;;;;;;1.33;1.23;;;11.40;91.50;;;;;;4976815;28;20946;-90
2023/05/30 04:57:23;;;;;;;1.20;1.20;;;11.40;91.60;;;;;;4977048;28;20484;-90
2023/05/30 04:59:48;;;;;;;2.03;1.50;;;11.40;91.80;;;;;;4967476;28;20468;-88
2023/05/30 05:02:14;;;;;;;1.50;1.40;;;11.40;91.40;;;;;;4974760;28;20273;-88
2023/05/30 05:04:40;;;;;;;1.20;1.10;;;11.40;91.50;;;;;;4976778;28;20269;-87
2023/05/30 05:07:08;;;;;;;2.93;1.93;;;11.40;91.70;;;;;;4971544;28;20174;-91
2023/05/30 05:09:33;;;;;;;1.73;1.40;;;11.50;91.90;;;;;;4976808;28;21129;-88
2023/05/30 05:12:00;;;;;;;2.40;2.13;;;11.50;91.90;;;;;;4982059;28;20480;-90
2023/05/30 05:14:28;;;;;;;1.77;1.70;;;11.50;91.60;;;;;;4970344;28;20186;-89
2023/05/30 05:16:53;;;;;;;1.93;1.83;;;11.60;92.20;;;;;;4979579;28;20700;-88
2023/05/30 05:19:19;;;;;;;3.27;2.70;;;11.60;91.80;;;;;;4978534;28;20576;-89
2023/05/30 05:21:45;;;;;;;40.17;1.70;;;11.70;91.80;;;;;;4976527;28;20221;-90
2023/05/30 05:24:10;;;;;;;5.03;1.90;;;11.70;91.70;;;;;;4972516;28;20198;-91
2023/05/30 05:26:36;;;;;;;1.87;1.80;;;11.80;91.60;;;;;;4970885;28;20178;-88
2023/05/30 05:29:01;;;;;;;3.20;2.17;;;11.80;91.30;;;;;;4971653;28;20647;-88
2023/05/30 05:31:27;;;;;;;4.37;2.43;;;11.80;91.20;;;;;;4973980;28;20217;-89
2023/05/30 05:33:53;;;;;;;2.93;1.50;;;11.90;91.70;;;;;;4966353;28;20265;-87
2023/05/30 05:36:19;;;;;;;3.80;2.00;;;11.90;91.30;;;;;;4985740;28;20232;-88
2023/05/30 05:38:44;;;;;;;1.77;1.67;;;12.00;91.50;;;;;;4980577;28;20236;-90
2023/05/30 05:41:10;;;;;;;2.33;2.13;;;12.00;91.70;;;;;;4972458;28;20441;-90
2023/05/30 05:43:36;;;;;;;23.60;1.80;;;12.00;91.70;;;;;;4965504;28;20185;-89
2023/05/30 05:46:08;;;;;;;5.13;2.23;;;12.00;92.10;;;;;;5058497;27;20607;-68
2023/05/30 05:48:34;;;;;;;1.80;1.70;;;12.10;91.90;;;;;;5060447;28;20892;-68
2023/05/30 05:50:59;;;;;;;2.10;1.77;;;12.10;91.40;;;;;;5036110;28;20671;-67
2023/05/30 05:53:25;;;;;;;1.63;1.53;;;12.10;91.20;;;;;;5062546;28;20214;-67
2023/05/30 05:55:52;;;;;;;21.17;1.87;;;12.10;91.20;;;;;;5045298;28;20171;-67
2023/05/30 05:58:17;;;;;;;1.30;1.30;;;12.10;90.80;;;;;;5059318;28;20660;-67
2023/05/30 06:00:43;;;;;;;6.63;1.87;;;12.20;91.00;;;;;;5054139;28;20524;-66
2023/05/30 06:03:08;;;;;;;1.67;1.57;;;12.20;91.00;;;;;;5063047;28;20171;-67
2023/05/30 06:05:34;;;;;;;1.80;1.70;;;12.30;90.80;;;;;;5059976;28;20687;-67
2023/05/30 06:07:59;;;;;;;1.97;1.50;;;12.30;90.40;;;;;;5041912;28;20184;-68
2023/05/30 06:10:25;;;;;;;1.17;1.07;;;12.40;90.60;;;;;;5037567;28;20199;-68
2023/05/30 06:12:51;;;;;;;2.27;2.07;;;12.50;90.00;;;;;;5038257;28;20586;-67
2023/05/30 06:15:17;;;;;;;1.73;1.63;;;12.50;89.70;;;;;;5034932;28;20434;-68
2023/05/30 06:17:42;;;;;;;2.77;2.57;;;12.50;90.10;;;;;;5043383;28;20270;-77
2023/05/30 06:20:09;;;;;;;3.47;2.03;;;12.60;90.30;;;;;;5055946;28;20245;-69
2023/05/30 06:22:34;;;;;;;3.47;1.60;;;12.60;90.00;;;;;;5040230;28;20179;-69
2023/05/30 06:25:00;;;;;;;1.33;1.13;;;12.70;90.30;;;;;;5048544;28;20468;-69
2023/05/30 06:27:26;;;;;;;1.33;1.23;;;12.70;90.10;;;;;;5055660;28;21622;-70
2023/05/30 06:29:54;;;;;;;2.27;1.70;;;12.70;90.10;;;;;;5041478;28;20651;-71
2023/05/30 06:32:20;;;;;;;3.67;2.60;;;12.80;90.20;;;;;;5033813;28;20197;-69
2023/05/30 06:34:46;;;;;;;1.40;1.30;;;12.80;90.10;;;;;;5039007;28;21197;-67
2023/05/30 06:37:13;;;;;;;3.33;1.77;;;12.90;90.30;;;;;;5053570;28;20618;-68
2023/05/30 06:39:39;;;;;;;1.70;1.60;;;13.00;90.50;;;;;;5035978;28;20270;-68
2023/05/30 06:42:05;;;;;;;4.70;2.57;;;13.00;90.30;;;;;;5043281;28;20828;-68
2023/05/30 06:44:30;;;;;;;3.10;1.70;;;13.00;90.30;;;;;;5040059;28;21024;-66
2023/05/30 06:46:56;;;;;;;2.20;2.00;;;13.10;90.50;;;;;;5049671;28;20425;-68
2023/05/30 06:49:22;;;;;;;3.13;1.80;;;13.20;90.60;;;;;;5038660;28;20788;-65
2023/05/30 06:51:48;;;;;;;2.50;1.57;;;13.20;90.10;;;;;;5039125;28;20576;-68
2023/05/30 06:54:13;;;;;;;4.33;2.70;;;13.30;90.40;;;;;;5043617;28;20431;-67
2023/05/30 06:56:39;;;;;;;1.30;1.20;;;13.30;90.10;;;;;;5047800;28;20242;-68
2023/05/30 06:59:04;;;;;;;3.20;1.93;;;13.40;89.80;;;;;;5046522;28;20713;-68
2023/05/30 07:01:30;;;;;;;1.77;1.67;;;13.50;89.70;;;;;;5038618;28;20224;-68
2023/05/30 07:03:56;;;;;;;2.00;1.90;;;13.50;89.50;;;;;;5026312;28;20197;-68
2023/05/30 07:06:21;;;;;;;6.53;2.20;;;13.60;89.50;;;;;;5021665;28;20207;-68
2023/05/30 07:08:47;;;;;;;2.87;2.23;;;13.70;89.60;;;;;;5017493;28;20484;-69
2023/05/30 07:11:12;;;;;;;4.83;2.07;;;13.80;89.50;;;;;;5029773;28;20278;-69
2023/05/30 07:13:38;;;;;;;2.17;2.00;;;13.90;89.30;;;;;;5045081;28;20177;-68
2023/05/30 07:16:04;;;;;;;1.20;1.13;;;14.00;88.90;;;;;;5026930;28;20188;-68
2023/05/30 07:18:29;;;;;;;1.47;1.37;;;14.10;88.30;;;;;;5026716;28;20196;-68
2023/05/30 07:20:55;;;;;;;2.90;1.60;;;14.10;87.10;;;;;;5044305;28;20207;-68
2023/05/30 07:23:20;;;;;;;1.77;1.40;;;14.20;87.20;;;;;;5029627;28;20190;-67
2023/05/30 07:25:46;;;;;;;1.37;1.27;;;14.30;87.50;;;;;;5029772;28;20210;-68
2023/05/30 07:28:11;;;;;;;6.83;1.93;;;14.40;87.40;;;;;;5056159;28;20176;-69
2023/05/30 07:30:37;;;;;;;1.63;1.53;;;14.50;87.20;;;;;;5036265;28;20195;-68
2023/05/30 07:33:03;;;;;;;1.73;1.30;;;14.60;86.90;;;;;;5033211;28;20196;-68
2023/05/30 07:35:28;;;;;;;2.50;1.57;;;14.60;86.80;;;;;;5027038;28;20635;-68
2023/05/30 07:37:54;;;;;;;3.10;1.67;;;14.80;86.50;;;;;;5038980;28;20196;-70
2023/05/30 07:40:19;;;;;;;13.70;1.70;;;14.80;85.90;;;;;;5038826;28;20279;-68
2023/05/30 07:42:49;;;;;;;3.00;1.93;;;14.90;85.70;;;;;;5037651;28;20263;-68
2023/05/30 07:45:14;;;;;;;1.53;1.43;;;15.00;84.60;;;;;;5023923;28;20231;-68
2023/05/30 07:47:40;;;;;;;17.70;2.03;;;15.10;84.30;;;;;;5042389;28;20418;-69
2023/05/30 07:50:07;;;;;;;1.80;1.70;;;15.20;84.30;;;;;;5030133;28;20215;-68
2023/05/30 07:52:33;;;;;;;2.07;1.67;;;15.30;83.70;;;;;;5058385;28;20168;-69
2023/05/30 07:54:59;;;;;;;6.77;2.60;;;15.40;82.80;;;;;;5032177;28;20427;-68
2023/05/30 07:57:24;;;;;;;7.00;1.00;;;15.50;83.10;;;;;;5036183;28;20909;-67
2023/05/30 07:59:50;;;;;;;1.43;1.00;;;15.60;82.60;;;;;;5049031;28;20176;-69
2023/05/30 08:02:16;;;;;;;2.10;1.70;;;15.70;80.70;;;;;;5052591;28;20227;-69
2023/05/30 08:04:42;;;;;;;0.90;0.90;;;15.80;80.50;;;;;;5035878;28;20192;-69
2023/05/30 08:07:07;;;;;;;1.37;1.27;;;15.80;80.60;;;;;;5030539;28;20296;-68
2023/05/30 08:09:33;;;;;;;1.33;1.00;;;15.90;80.90;;;;;;5037425;28;20176;-68
2023/05/30 08:12:01;;;;;;;1.73;1.43;;;16.00;81.70;;;;;;5032424;28;20652;-69
2023/05/30 08:14:27;;;;;;;1.17;1.07;;;16.20;82.30;;;;;;5049833;28;20267;-68
2023/05/30 08:16:52;;;;;;;7.93;2.93;;;16.30;81.50;;;;;;5035414;28;20851;-68
2023/05/30 08:19:18;;;;;;;1.23;1.23;;;16.40;81.70;;;;;;5036616;28;20243;-68
2023/05/30 08:21:44;;;;;;;1.67;1.10;;;16.50;82.00;;;;;;5037719;28;20200;-68
2023/05/30 08:24:12;;;;;;;1.20;1.10;;;16.60;81.20;;;;;;5052320;28;20207;-69
2023/05/30 08:26:39;;;;;;;1.90;1.40;;;16.60;81.20;;;;;;5029110;28;20172;-68
2023/05/30 08:29:05;;;;;;;1.53;1.30;;;16.70;81.40;;;;;;5031960;28;20445;-68
2023/05/30 08:31:31;;;;;;;1.00;0.90;;;16.80;79.70;;;;;;5048597;28;20433;-69
2023/05/30 08:33:56;;;;;;;2.53;2.33;;;16.80;79.60;;;;;;5031532;28;20429;-67
2023/05/30 08:36:22;;;;;;;2.17;1.53;;;16.80;80.10;;;;;;5029465;28;20180;-67
2023/05/30 08:38:53;;;;;;;1.53;1.43;;;16.90;81.70;;;;;;5033748;28;20179;-68
2023/05/30 08:41:22;;;;;;;1.60;1.50;;;17.00;80.60;;;;;;5054048;28;20195;-68
2023/05/30 08:43:49;;;;;;;10.23;1.43;;;17.10;80.00;;;;;;5039792;28;20757;-67
2023/05/30 08:46:16;;;;;;;1.00;1.00;;;17.10;79.60;;;;;;5029613;28;20434;-66
2023/05/30 08:48:43;;;;;;;1.87;1.77;;;17.20;79.40;;;;;;5036154;28;20430;-66
2023/05/30 08:51:13;;;;;;;1.90;1.83;;;17.20;79.20;;;;;;5034889;28;20984;-67
2023/05/30 08:53:45;;;;;;;1.30;1.13;;;17.20;79.40;;;;;;5051064;28;20417;-67
2023/05/30 08:56:23;;;;;;;3.90;1.10;;;17.40;80.20;;;;;;5032778;28;20432;-67
2023/05/30 08:58:50;;;;;;;2.70;2.07;;;17.50;79.40;;;;;;5036861;28;20461;-67
2023/05/30 09:01:17;;;;;;;1.77;1.20;;;17.50;78.10;;;;;;5031792;28;20473;-66
2023/05/30 09:03:45;;;;;;;3.63;1.53;;;17.60;77.90;;;;;;5020792;28;20809;-66
2023/05/30 09:06:12;;;;;;;3.03;1.70;;;17.70;79.30;;;;;;5026748;28;20465;-67
2023/05/30 09:08:39;;;;;;;1.77;1.60;;;17.70;78.10;;;;;;5042128;28;20513;-67
2023/05/30 09:11:05;;;;;;;2.00;1.60;;;17.80;78.50;;;;;;5043036;28;20472;-67
2023/05/30 09:13:30;;;;;;;1.70;1.60;;;17.90;78.10;;;;;;5031287;28;20970;-67
2023/05/30 09:15:56;;;;;;;1.27;1.17;;;17.90;78.20;;;;;;5031512;28;20176;-68
2023/05/30 09:18:21;;;;;;;1.40;1.30;;;18.00;78.30;;;;;;5017471;28;20227;-67
2023/05/30 09:20:47;;;;;;;1.23;1.13;;;18.00;78.00;;;;;;5039714;28;20261;-67
2023/05/30 09:23:13;;;;;;;20.77;1.80;;;18.10;78.10;;;;;;5024073;28;20175;-67
2023/05/30 09:25:46;;;;;;;8.83;2.00;;;18.10;77.10;;;;;;5024679;28;20664;-67
2023/05/30 09:28:13;;;;;;;1.27;1.20;;;18.20;76.80;;;;;;5033655;28;20411;-67
2023/05/30 09:30:58;;;;;;;1.90;1.20;;;18.20;76.50;;;;;;5044198;28;20445;-66
2023/05/30 09:33:39;;;;;;;4.30;1.43;;;18.30;77.30;;;;;;5051542;28;20409;-67
2023/05/30 09:36:07;;;;;;;5.60;2.50;;;18.30;76.90;;;;;;5033870;28;21020;-67
2023/05/30 09:38:32;;;;;;;1.27;1.20;;;18.40;76.20;;;;;;5029066;28;20817;-67
2023/05/30 09:41:04;;;;;;;5.97;1.57;;;18.40;76.40;;;;;;5026945;28;20446;-67
2023/05/30 09:43:34;;;;;;;1.73;1.47;;;18.50;76.70;;;;;;5028314;28;20259;-67
2023/05/30 09:46:05;;;;;;;1.00;1.00;;;18.60;77.40;;;;;;5045777;28;21012;-67
2023/05/30 09:48:32;;;;;;;6.53;2.10;;;18.70;76.90;;;;;;5043571;28;20537;-66
2023/05/30 09:51:00;;;;;;;1.47;1.20;;;18.70;76.00;;;;;;5016498;28;20447;-67
2023/05/30 09:53:33;;;;;;;1.10;1.00;;;18.80;76.00;;;;;;5045741;28;20425;-67
2023/05/30 09:56:01;;;;;;;2.17;1.87;;;18.90;76.00;;;;;;5031223;28;20415;-67
2023/05/30 09:58:26;;;;;;;1.00;1.00;;;19.00;76.60;;;;;;5020605;28;20427;-68
2023/05/30 10:00:54;;;;;;;6.60;1.70;;;19.10;76.40;;;;;;5025155;28;20529;-67
2023/05/30 10:03:20;;;;;;;3.13;1.73;;;19.20;76.00;;;;;;5022990;28;20540;-66
2023/05/30 10:05:46;;;;;;;2.67;1.87;;;19.30;74.20;;;;;;5021378;28;20986;-67
2023/05/30 10:08:13;;;;;;;1.03;0.93;;;19.30;74.60;;;;;;5044422;28;20418;-68
2023/05/30 10:10:40;;;;;;;1.30;1.20;;;19.40;74.80;;;;;;5036993;28;20655;-66
2023/05/30 10:13:05;;;;;;;1.00;0.90;;;19.40;75.60;;;;;;5046547;28;20567;-66
2023/05/30 10:15:31;;;;;;;1.43;1.23;;;19.50;75.50;;;;;;5034946;28;21198;-66
2023/05/30 10:18:08;;;;;;;7.70;1.57;;;19.50;74.70;;;;;;5028202;28;20210;-67
2023/05/30 10:20:39;;;;;;;1.30;1.20;;;19.60;74.80;;;;;;5036023;28;20460;-66
2023/05/30 10:23:08;;;;;;;3.10;2.00;;;19.60;75.50;;;;;;5041565;28;20596;-67
2023/05/30 10:25:36;;;;;;;7.13;1.50;;;19.70;74.90;;;;;;5034329;28;20472;-67
2023/05/30 10:28:03;;;;;;;1.43;1.33;;;19.80;74.50;;;;;;5021470;28;20422;-66
2023/05/30 10:30:35;;;;;;;4.70;2.27;;;19.80;74.10;;;;;;5020231;28;20434;-66
2023/05/30 10:35:34;;;;;;;1.23;1.20;;;19.90;74.70;;;;;;5020494;28;20843;-86
2023/05/30 10:38:00;;;;;;;0.90;0.80;;;20.00;74.80;;;;;;5009201;28;20941;-86
2023/05/30 10:40:41;;;;;;;1.93;1.63;;;20.10;72.90;;;;;;5016279;28;20465;-84
2023/05/30 10:43:28;;;;;;;2.50;1.50;;;20.00;73.90;;;;;;5029284;28;20403;-88
2023/05/30 10:46:10;;;;;;;6.10;2.37;;;20.00;73.80;;;;;;5012460;28;20463;-86
2023/05/30 10:48:57;;;;;;;2.30;1.37;;;20.00;73.70;;;;;;5025193;28;20594;-86
2023/05/30 10:51:23;;;;;;;1.37;1.27;;;20.10;74.30;;;;;;5026711;28;20587;-84
2023/05/30 10:53:49;;;;;;;1.67;1.40;;;20.30;73.80;;;;;;5024978;28;20435;-86
2023/05/30 10:56:29;;;;;;;3.43;2.07;;;20.40;73.10;;;;;;5010374;28;20395;-83
2023/05/30 10:58:56;;;;;;;1.43;1.40;;;20.50;72.70;;;;;;5007853;28;20427;-86
2023/05/30 11:01:29;;;;;;;12.13;1.20;;;20.50;72.80;;;;;;5000877;28;20428;-87
2023/05/30 11:04:12;;;;;;;1.40;1.10;;;20.50;72.70;;;;;;5000678;28;20445;-86
2023/05/30 11:06:44;;;;;;;9.93;1.40;;;20.60;74.20;;;;;;4998345;28;20954;-84
2023/05/30 11:09:12;;;;;;;2.20;2.07;;;20.70;74.20;;;;;;5001088;28;20435;-87
2023/05/30 11:11:55;;;;;;;1.30;1.10;;;20.80;73.90;;;;;;5007092;28;20723;-83
2023/05/30 11:14:32;;;;;;;2.70;1.47;;;20.90;72.80;;;;;;5006327;28;20498;-86
2023/05/30 11:17:01;;;;;;;1.47;1.40;;;21.00;72.40;;;;;;5019848;28;20901;-85
2023/05/30 11:19:35;;;;;;;1.67;1.30;;;21.10;72.60;;;;;;5014703;28;20430;-86
2023/05/30 11:22:02;;;;;;;2.10;1.30;;;21.10;71.80;;;;;;5013846;28;20473;-86
2023/05/30 11:24:30;;;;;;;1.20;1.00;;;21.10;72.60;;;;;;4996882;28;20835;-84
2023/05/30 11:27:07;;;;;;;2.03;1.90;;;21.20;73.70;;;;;;4997547;28;20524;-86
2023/05/30 11:29:55;;;;;;;1.70;1.60;;;21.30;72.70;;;;;;5002640;28;20417;-83
2023/05/30 11:32:28;;;;;;;3.63;1.60;;;21.40;71.30;;;;;;4997368;28;20463;-87
2023/05/30 11:35:01;;;;;;;1.10;1.00;;;21.30;70.80;;;;;;5016412;28;20460;-86
2023/05/30 11:37:31;;;;;;;3.07;2.77;;;21.30;71.90;;;;;;5015232;28;20424;-84
2023/05/30 11:39:57;;;;;;;3.73;1.90;;;21.30;72.50;;;;;;5021922;28;20731;-83
2023/05/30 11:42:24;;;;;;;2.10;1.40;;;21.40;71.10;;;;;;4997979;28;20796;-87
2023/05/30 11:44:50;;;;;;;7.13;1.77;;;21.40;72.30;;;;;;5002317;28;20470;-84
2023/05/30 11:47:17;;;;;;;2.80;2.60;;;21.50;70.50;;;;;;5004046;28;20416;-83
2023/05/30 11:49:45;;;;;;;4.27;2.60;;;21.50;70.10;;;;;;5004094;28;20451;-86
2023/05/30 11:52:12;;;;;;;2.47;1.30;;;21.50;71.50;;;;;;4996007;28;20420;-83
2023/05/30 11:54:38;;;;;;;2.70;1.30;;;21.60;70.10;;;;;;5024503;28;20501;-83
2023/05/30 11:57:06;;;;;;;1.00;1.00;;;21.60;71.00;;;;;;5014266;28;20961;-85
2023/05/30 11:59:32;;;;;;;1.20;1.20;;;21.70;72.20;;;;;;4998862;28;20180;-86
2023/05/30 12:01:59;;;;;;;4.40;2.40;;;21.90;71.60;;;;;;5020147;28;21269;-87
2023/05/30 12:04:32;;;;;;;1.60;1.17;;;22.00;70.80;;;;;;5010693;28;20209;-86
2023/05/30 12:07:03;;;;;;;1.60;1.23;;;22.10;70.40;;;;;;5000939;28;20890;-86
2023/05/30 12:09:36;;;;;;;4.53;2.00;;;22.10;69.50;;;;;;4997953;28;20779;-83
2023/05/30 12:12:02;;;;;;;1.33;1.23;;;22.20;70.70;;;;;;5000050;28;20442;-83
2023/05/30 12:14:37;;;;;;;2.20;1.70;;;22.30;70.10;;;;;;5009687;28;20486;-85
2023/05/30 12:17:14;;;;;;;1.53;1.50;;;22.40;70.80;;;;;;4996930;28;20184;-84
2023/05/30 12:19:43;;;;;;;7.83;2.10;;;22.50;70.90;;;;;;4994993;28;20510;-84
2023/05/30 12:22:13;;;;;;;1.53;1.43;;;22.50;68.50;;;;;;4995594;28;20524;-86
2023/05/30 12:24:38;;;;;;;1.13;1.10;;;22.40;69.60;;;;;;5012903;28;20614;-85
2023/05/30 12:27:16;;;;;;;1.10;1.00;;;22.50;71.80;;;;;;5002616;28;20491;-86
2023/05/30 12:29:42;;;;;;;1.53;1.43;;;22.70;68.80;;;;;;5000696;28;20173;-83
2023/05/30 12:32:08;;;;;;;6.00;1.97;;;22.70;69.60;;;;;;4994940;28;20431;-84
2023/05/30 12:34:45;;;;;;;4.70;1.30;;;22.70;69.40;;;;;;4994782;28;20468;-86
2023/05/30 12:37:12;;;;;;;1.20;1.10;;;22.80;68.20;;;;;;4994832;28;20242;-86
2023/05/30 12:39:50;;;;;;;1.63;1.13;;;22.80;69.50;;;;;;5023598;28;20468;-84
2023/05/30 12:42:21;;;;;;;2.93;1.43;;;22.90;69.00;;;;;;5008078;28;20416;-85
2023/05/30 12:44:52;;;;;;;1.97;1.40;;;22.90;67.70;;;;;;4997083;28;20462;-86
2023/05/30 12:47:18;;;;;;;1.20;1.07;;;22.80;67.60;;;;;;5017463;28;20427;-87
2023/05/30 12:49:44;;;;;;;4.60;1.80;;;22.90;68.00;;;;;;4993096;28;20487;-86
2023/05/30 12:52:14;;;;;;;2.83;1.70;;;22.90;68.10;;;;;;5008188;28;20578;-83
2023/05/30 12:54:42;;;;;;;1.57;1.20;;;23.00;67.80;;;;;;4992197;28;20204;-83
2023/05/30 12:57:09;;;;;;;3.00;1.77;;;23.00;66.80;;;;;;4994181;28;21087;-87
2023/05/30 12:59:35;;;;;;;5.73;2.00;;;23.10;68.50;;;;;;4994227;28;20567;-83
2023/05/30 13:02:01;;;;;;;1.40;1.30;;;23.30;69.40;;;;;;4999604;28;20455;-87
2023/05/30 13:04:28;;;;;;;1.17;1.07;;;23.50;68.10;;;;;;4992671;28;20839;-87
2023/05/30 13:06:53;;;;;;;2.30;1.60;;;23.60;66.40;;;;;;4996928;28;20547;-84
2023/05/30 13:09:21;;;;;;;2.93;1.90;;;23.60;66.40;;;;;;4992007;28;20416;-87
2023/05/30 13:11:47;;;;;;;4.23;2.63;;;23.50;66.00;;;;;;4994153;28;20183;-84
2023/05/30 13:14:13;;;;;;;1.37;1.27;;;23.40;66.20;;;;;;4999859;28;20436;-86
2023/05/30 13:16:38;;;;;;;1.37;1.10;;;23.40;67.80;;;;;;5014860;28;20622;-86
2023/05/30 13:19:04;;;;;;;2.13;1.30;;;23.60;68.70;;;;;;4994988;28;20635;-82
2023/05/30 13:21:30;;;;;;;1.40;1.30;;;23.80;68.80;;;;;;4993916;28;20259;-87
2023/05/30 13:23:55;;;;;;;1.67;1.33;;;24.10;67.30;;;;;;5008243;28;20197;-87
2023/05/30 13:26:21;;;;;;;6.83;1.60;;;24.30;66.40;;;;;;4994718;28;20212;-84
2023/05/30 13:28:47;;;;;;;2.80;1.90;;;24.40;67.00;;;;;;5011225;28;20667;-87
2023/05/30 13:31:13;;;;;;;4.53;2.53;;;24.50;67.10;;;;;;4998331;28;20227;-84
2023/05/30 13:33:38;;;;;;;2.40;2.20;;;24.60;65.30;;;;;;4997707;28;20209;-84
2023/05/30 13:36:04;;;;;;;1.83;1.27;;;24.50;64.80;;;;;;4998035;28;20431;-85
2023/05/30 13:38:30;;;;;;;2.57;2.20;;;24.40;66.10;;;;;;4999985;28;20181;-87
2023/05/30 13:40:56;;;;;;;2.37;2.20;;;24.40;65.40;;;;;;5010685;28;20200;-86
2023/05/30 13:43:21;;;;;;;1.57;1.33;;;24.40;64.90;;;;;;5015763;28;20652;-87
2023/05/30 13:45:48;;;;;;;3.70;1.40;;;24.40;64.60;;;;;;5002614;28;20546;-86
2023/05/30 13:48:21;;;;;;;2.10;1.30;;;24.40;64.90;;;;;;5025367;28;20181;-85
2023/05/30 13:50:48;;;;;;;1.40;1.30;;;24.50;66.40;;;;;;5024302;28;21635;-87
2023/05/30 13:53:13;;;;;;;2.37;1.33;;;24.60;64.50;;;;;;5023646;28;20408;-84
2023/05/30 13:55:39;;;;;;;1.73;1.63;;;24.60;65.30;;;;;;5008098;28;20465;-85
2023/05/30 13:58:05;;;;;;;5.43;1.73;;;24.50;64.90;;;;;;4999522;28;20196;-87
2023/05/30 14:00:31;;;;;;;2.50;1.53;;;24.50;66.50;;;;;;5005225;28;20420;-87
2023/05/30 14:02:56;;;;;;;2.20;2.00;;;24.70;65.70;;;;;;5003925;28;20557;-85
2023/05/30 14:05:22;;;;;;;1.37;1.00;;;25.00;67.30;;;;;;4994209;28;20205;-88
2023/05/30 14:07:48;;;;;;;3.27;2.13;;;25.10;65.00;;;;;;5000020;28;20304;-88
2023/05/30 14:10:17;;;;;;;2.60;1.03;;;25.20;66.20;;;;;;5026416;28;20278;-84
2023/05/30 14:12:43;;;;;;;3.13;1.83;;;25.40;64.90;;;;;;4997080;28;20941;-85
2023/05/30 14:15:11;;;;;;;1.70;1.60;;;25.40;62.70;;;;;;5005683;28;20448;-87
2023/05/30 14:17:36;;;;;;;3.10;1.87;;;25.20;63.70;;;;;;5015229;28;20438;-86
2023/05/30 14:20:06;;;;;;;2.80;2.23;;;25.20;64.50;;;;;;5001058;28;20888;-87
2023/05/30 14:22:32;;;;;;;2.47;1.87;;;25.20;63.60;;;;;;4994615;28;20178;-88
2023/05/30 14:24:58;;;;;;;1.83;1.50;;;25.20;63.90;;;;;;5004060;28;20471;-88
2023/05/30 14:27:23;;;;;;;2.07;1.60;;;25.20;64.10;;;;;;4996920;28;20264;-85
2023/05/30 14:29:51;;;;;;;1.47;1.37;;;25.40;63.50;;;;;;4999097;28;20250;-87
2023/05/30 14:32:16;;;;;;;2.60;1.63;;;25.40;63.10;;;;;;5004554;28;20188;-88
2023/05/30 14:34:42;;;;;;;1.23;1.13;;;25.40;63.00;;;;;;4997122;28;20836;-85
2023/05/30 14:37:07;;;;;;;1.37;1.30;;;25.50;64.00;;;;;;4994506;28;20184;-87
2023/05/30 14:39:34;;;;;;;3.47;1.53;;;25.70;64.20;;;;;;4993699;28;20599;-86
2023/05/30 14:41:59;;;;;;;11.00;2.40;;;25.80;63.70;;;;;;4999047;28;20187;-87
2023/05/30 14:44:25;;;;;;;5.00;1.90;;;26.00;62.90;;;;;;5019110;28;20487;-87
2023/05/30 14:46:54;;;;;;;1.63;1.33;;;26.00;62.50;;;;;;4996102;28;20610;-86
2023/05/30 14:49:20;;;;;;;1.10;1.00;;;26.00;62.10;;;;;;4995700;28;20254;-87
2023/05/30 14:51:45;;;;;;;2.90;1.77;;;26.00;61.90;;;;;;5004917;28;20416;-87
2023/05/30 14:54:11;;;;;;;4.10;1.80;;;26.10;62.40;;;;;;5019236;28;20651;-87
2023/05/30 14:56:37;;;;;;;1.97;1.47;;;26.10;61.60;;;;;;4998761;28;20885;-89
2023/05/30 14:59:02;;;;;;;4.73;1.53;;;26.00;61.30;;;;;;4997927;28;20235;-87
2023/05/30 15:01:28;;;;;;;1.90;1.60;;;26.00;61.70;;;;;;5000513;28;20598;-86
2023/05/30 15:03:54;;;;;;;2.70;2.60;;;26.00;62.10;;;;;;4994044;28;20205;-88
2023/05/30 15:06:19;;;;;;;1.20;1.10;;;26.00;61.00;;;;;;4997756;28;20209;-86
2023/05/30 15:08:45;;;;;;;1.43;1.33;;;26.00;61.30;;;;;;4997407;28;20448;-88
2023/05/30 15:11:10;;;;;;;1.97;1.57;;;25.90;61.90;;;;;;5004887;28;20204;-88
2023/05/30 15:13:36;;;;;;;8.43;1.77;;;25.80;61.60;;;;;;5005405;28;20555;-86
2023/05/30 15:16:01;;;;;;;1.80;1.30;;;25.80;62.50;;;;;;5016947;28;20185;-89
2023/05/30 15:18:27;;;;;;;2.87;1.23;;;25.90;62.10;;;;;;5000684;28;20195;-86
2023/05/30 15:20:52;;;;;;;3.23;1.37;;;25.90;61.90;;;;;;5006867;28;20178;-88
2023/05/30 15:23:18;;;;;;;4.20;1.63;;;25.80;61.50;;;;;;5000224;28;20954;-87
2023/05/30 15:25:43;;;;;;;3.70;1.67;;;25.70;62.20;;;;;;4993860;28;20205;-86
2023/05/30 15:28:09;;;;;;;4.10;1.63;;;25.80;62.70;;;;;;4995776;28;20196;-89
2023/05/30 15:30:35;;;;;;;4.30;1.77;;;26.00;62.10;;;;;;4996075;28;20267;-87
2023/05/30 15:33:00;;;;;;;17.00;1.43;;;26.00;62.30;;;;;;4993315;28;20177;-88
2023/05/30 15:35:26;;;;;;;1.77;1.70;;;26.00;62.40;;;;;;4992973;28;21008;-87
2023/05/30 15:37:52;;;;;;;1.00;1.00;;;26.00;62.90;;;;;;4996241;28;20185;-88
2023/05/30 15:40:18;;;;;;;1.33;1.30;;;26.10;63.20;;;;;;4993537;28;20185;-89
2023/05/30 15:42:43;;;;;;;1.07;0.97;;;26.20;62.50;;;;;;4993623;28;20188;-86
2023/05/30 15:45:09;;;;;;;1.60;1.40;;;26.30;62.50;;;;;;5010853;28;20213;-87
2023/05/30 15:47:35;;;;;;;2.80;1.53;;;26.30;62.30;;;;;;5006240;28;20234;-88
2023/05/30 15:50:00;;;;;;;1.07;1.00;;;26.30;62.70;;;;;;4995891;28;20324;-88
2023/05/30 15:52:26;;;;;;;1.37;1.27;;;26.30;62.30;;;;;;4997634;28;20208;-89
2023/05/30 15:54:51;;;;;;;1.60;1.50;;;26.10;62.20;;;;;;4993062;28;20697;-88
2023/05/30 15:57:17;;;;;;;7.70;2.57;;;25.80;62.10;;;;;;4993827;28;20192;-89
2023/05/30 15:59:44;;;;;;;1.47;1.47;;;25.30;62.70;;;;;;4991834;28;20196;-88
2023/05/30 16:02:12;;;;;;;3.77;2.17;;;24.80;63.30;;;;;;5000339;28;20188;-87
2023/05/30 16:04:38;;;;;;;6.90;2.17;;;24.60;64.00;;;;;;5012326;28;20472;-87
2023/05/30 16:07:04;;;;;;;5.93;2.40;;;24.70;64.20;;;;;;4998611;28;20430;-86
2023/05/30 16:09:29;;;;;;;1.27;1.27;;;24.90;63.70;;;;;;4998283;28;20194;-85
2023/05/30 16:11:55;;;;;;;1.57;1.47;;;25.00;63.60;;;;;;5011246;28;20192;-87
2023/05/30 16:14:24;;;;;;;3.60;1.40;;;25.10;63.20;;;;;;4995832;28;20197;-88
2023/05/30 16:16:50;;;;;;;1.43;1.30;;;25.20;62.90;;;;;;5000419;28;20192;-87
2023/05/30 16:19:16;;;;;;;2.20;1.37;;;25.20;62.80;;;;;;4994258;28;20412;-87
2023/05/30 16:21:42;;;;;;;2.70;1.40;;;25.20;61.80;;;;;;5019721;28;20423;-85
2023/05/30 16:24:07;;;;;;;1.57;1.47;;;25.20;62.30;;;;;;5012571;28;20212;-86
2023/05/30 16:26:33;;;;;;;1.10;1.00;;;25.20;61.90;;;;;;4994524;28;20188;-86
2023/05/30 16:28:58;;;;;;;2.43;1.27;;;25.10;61.40;;;;;;5011032;28;20267;-86
2023/05/30 16:31:24;;;;;;;1.10;1.00;;;25.00;61.90;;;;;;4996293;28;20272;-87
2023/05/30 16:33:50;;;;;;;1.17;1.07;;;25.10;62.30;;;;;;4997232;28;20419;-87
2023/05/30 16:36:18;;;;;;;2.00;1.90;;;25.20;62.90;;;;;;4996476;28;20185;-85
2023/05/30 16:38:44;;;;;;;1.63;1.53;;;25.30;62.80;;;;;;4998037;28;20478;-87
2023/05/30 16:41:10;;;;;;;1.87;0.90;;;25.30;62.50;;;;;;5020426;28;20427;-87
2023/05/30 16:43:39;;;;;;;2.93;1.30;;;25.20;62.90;;;;;;4994720;28;20774;-89
2023/05/30 16:46:04;;;;;;;1.80;1.37;;;25.20;62.90;;;;;;4999018;28;20452;-85
2023/05/30 16:48:32;;;;;;;1.00;0.90;;;25.20;62.50;;;;;;5000845;28;20435;-87